sensor_id;sensor_type;location;lat;lon;timestamp;temperature;humidity
20208;DHT22;10263;48.716;8.760;2023-04-24T00:03:43;9.80;99.90
20208;DHT22;10263;48.716;8.760;2023-04-24T00:11:05;9.80;99.90
20208;DHT22;10263;48.716;8.760;2023-04-24T00:15:59;9.60;99.90
20208;DHT22;10263;48.716;8.760;2023-04-24T00:18:26;9.60;99.90
20208;DHT22;10263;48.716;8.760;2023-04-24T00:20:54;9.60;99.90
20208;DHT22;10263;48.716;8.760;2023-04-24T00:23:21;9.80;99.90
20208;DHT22;10263;48.716;8.760;2023-04-24T00:28:15;9.90;99.90
20208;DHT22;10263;48.716;8.760;2023-04-24T00:33:09;9.90;99.90
20208;DHT22;10263;48.716;8.760;2023-04-24T00:35:35;9.70;99.90
20208;DHT22;10263;48.716;8.760;2023-04-24T00:38:03;10.00;99.90
20208;DHT22;10263;48.716;8.760;2023-04-24T00:40:31;10.00;99.90
20208;DHT22;10263;48.716;8.760;2023-04-24T00:47:52;9.90;99.90
20208;DHT22;10263;48.716;8.760;2023-04-24T00:50:21;9.90;99.90
20208;DHT22;10263;48.716;8.760;2023-04-24T00:55:16;9.70;99.90
20208;DHT22;10263;48.716;8.760;2023-04-24T00:57:43;9.50;99.90
20208;DHT22;10263;48.716;8.760;2023-04-24T01:00:11;9.70;99.90
20208;DHT22;10263;48.716;8.760;2023-04-24T01:02:39;9.90;99.90
20208;DHT22;10263;48.716;8.760;2023-04-24T01:05:09;9.30;99.90
20208;DHT22;10263;48.716;8.760;2023-04-24T01:07:38;9.90;99.90
20208;DHT22;10263;48.716;8.760;2023-04-24T01:10:06;9.70;99.90
20208;DHT22;10263;48.716;8.760;2023-04-24T01:12:35;9.80;99.90
20208;DHT22;10263;48.716;8.760;2023-04-24T01:15:02;9.30;99.90
20208;DHT22;10263;48.716;8.760;2023-04-24T01:17:30;9.50;99.90
20208;DHT22;10263;48.716;8.760;2023-04-24T01:19:58;9.50;99.90
20208;DHT22;10263;48.716;8.760;2023-04-24T01:22:27;9.50;99.90
20208;DHT22;10263;48.716;8.760;2023-04-24T01:29:48;9.60;99.90
20208;DHT22;10263;48.716;8.760;2023-04-24T01:32:17;9.70;99.90
20208;DHT22;10263;48.716;8.760;2023-04-24T01:34:45;9.30;99.90
20208;DHT22;10263;48.716;8.760;2023-04-24T01:37:12;9.60;99.90
20208;DHT22;10263;48.716;8.760;2023-04-24T01:39:41;9.60;99.90
20208;DHT22;10263;48.716;8.760;2023-04-24T01:49:30;9.60;99.90
20208;DHT22;10263;48.716;8.760;2023-04-24T01:54:24;9.60;99.90
20208;DHT22;10263;48.716;8.760;2023-04-24T01:56:53;9.30;99.90
20208;DHT22;10263;48.716;8.760;2023-04-24T01:59:20;9.50;99.90
20208;DHT22;10263;48.716;8.760;2023-04-24T02:04:18;9.10;99.90
20208;DHT22;10263;48.716;8.760;2023-04-24T02:06:45;9.60;99.90
20208;DHT22;10263;48.716;8.760;2023-04-24T02:11:39;9.10;99.90
20208;DHT22;10263;48.716;8.760;2023-04-24T02:14:07;9.30;99.90
20208;DHT22;10263;48.716;8.760;2023-04-24T02:16:34;9.20;99.90
20208;DHT22;10263;48.716;8.760;2023-04-24T02:21:28;9.40;99.90
20208;DHT22;10263;48.716;8.760;2023-04-24T02:23:56;9.00;99.90
20208;DHT22;10263;48.716;8.760;2023-04-24T02:26:23;9.10;99.90
20208;DHT22;10263;48.716;8.760;2023-04-24T02:31:21;9.30;99.90
20208;DHT22;10263;48.716;8.760;2023-04-24T02:38:42;8.80;99.90
20208;DHT22;10263;48.716;8.760;2023-04-24T02:41:09;9.20;99.90
20208;DHT22;10263;48.716;8.760;2023-04-24T02:43:35;9.30;99.90
20208;DHT22;10263;48.716;8.760;2023-04-24T02:46:02;8.90;99.90
20208;DHT22;10263;48.716;8.760;2023-04-24T02:48:31;9.10;99.90
20208;DHT22;10263;48.716;8.760;2023-04-24T02:50:58;8.70;99.90
20208;DHT22;10263;48.716;8.760;2023-04-24T02:53:25;9.10;99.90
20208;DHT22;10263;48.716;8.760;2023-04-24T02:55:52;8.80;99.90
20208;DHT22;10263;48.716;8.760;2023-04-24T03:00:46;9.00;99.90
20208;DHT22;10263;48.716;8.760;2023-04-24T03:03:14;8.80;99.90
20208;DHT22;10263;48.716;8.760;2023-04-24T03:05:42;9.00;99.90
20208;DHT22;10263;48.716;8.760;2023-04-24T03:08:09;8.60;99.90
20208;DHT22;10263;48.716;8.760;2023-04-24T03:10:35;9.10;99.90
20208;DHT22;10263;48.716;8.760;2023-04-24T03:15:30;8.60;99.90
20208;DHT22;10263;48.716;8.760;2023-04-24T03:17:56;9.00;99.90
20208;DHT22;10263;48.716;8.760;2023-04-24T03:20:23;8.70;99.90
20208;DHT22;10263;48.716;8.760;2023-04-24T03:22:53;8.80;99.90
20208;DHT22;10263;48.716;8.760;2023-04-24T03:25:20;9.00;99.90
20208;DHT22;10263;48.716;8.760;2023-04-24T03:27:47;8.60;99.90
20208;DHT22;10263;48.716;8.760;2023-04-24T03:30:38;8.80;99.90
20208;DHT22;10263;48.716;8.760;2023-04-24T03:33:06;8.40;99.90
20208;DHT22;10263;48.716;8.760;2023-04-24T03:38:09;8.70;99.90
20208;DHT22;10263;48.716;8.760;2023-04-24T03:40:58;8.90;99.90
20208;DHT22;10263;48.716;8.760;2023-04-24T03:43:42;8.90;99.90
20208;DHT22;10263;48.716;8.760;2023-04-24T03:46:10;9.00;99.90
20208;DHT22;10263;48.716;8.760;2023-04-24T03:48:44;8.90;99.90
20208;DHT22;10263;48.716;8.760;2023-04-24T03:51:12;8.80;99.90
20208;DHT22;10263;48.716;8.760;2023-04-24T03:53:44;8.40;99.90
20208;DHT22;10263;48.716;8.760;2023-04-24T03:56:14;8.80;99.90
20208;DHT22;10263;48.716;8.760;2023-04-24T03:58:41;8.60;99.90
20208;DHT22;10263;48.716;8.760;2023-04-24T04:01:09;8.50;99.90
20208;DHT22;10263;48.716;8.760;2023-04-24T04:06:22;8.60;99.90
20208;DHT22;10263;48.716;8.760;2023-04-24T04:08:52;8.50;99.90
20208;DHT22;10263;48.716;8.760;2023-04-24T04:11:19;8.10;99.90
20208;DHT22;10263;48.716;8.760;2023-04-24T04:13:46;8.40;99.90
20208;DHT22;10263;48.716;8.760;2023-04-24T04:16:16;8.20;99.90
20208;DHT22;10263;48.716;8.760;2023-04-24T04:18:44;8.00;99.90
20208;DHT22;10263;48.716;8.760;2023-04-24T04:21:11;7.80;99.90
20208;DHT22;10263;48.716;8.760;2023-04-24T04:23:38;8.20;99.90
20208;DHT22;10263;48.716;8.760;2023-04-24T04:26:14;8.10;99.90
20208;DHT22;10263;48.716;8.760;2023-04-24T04:29:00;8.00;99.90
20208;DHT22;10263;48.716;8.760;2023-04-24T04:33:59;8.00;99.90
20208;DHT22;10263;48.716;8.760;2023-04-24T04:36:29;7.80;99.90
20208;DHT22;10263;48.716;8.760;2023-04-24T04:39:02;8.10;99.90
20208;DHT22;10263;48.716;8.760;2023-04-24T04:41:54;7.90;99.90
20208;DHT22;10263;48.716;8.760;2023-04-24T04:44:25;7.50;99.90
20208;DHT22;10263;48.716;8.760;2023-04-24T04:46:53;7.80;99.90
20208;DHT22;10263;48.716;8.760;2023-04-24T04:49:27;7.70;99.90
20208;DHT22;10263;48.716;8.760;2023-04-24T04:54:24;7.90;99.90
20208;DHT22;10263;48.716;8.760;2023-04-24T04:56:51;7.40;99.90
20208;DHT22;10263;48.716;8.760;2023-04-24T04:59:20;7.70;99.90
20208;DHT22;10263;48.716;8.760;2023-04-24T05:01:50;7.50;99.90
20208;DHT22;10263;48.716;8.760;2023-04-24T05:06:44;7.70;99.90
20208;DHT22;10263;48.716;8.760;2023-04-24T05:11:48;7.80;99.90
20208;DHT22;10263;48.716;8.760;2023-04-24T05:16:46;7.70;99.90
20208;DHT22;10263;48.716;8.760;2023-04-24T05:19:14;7.30;99.90
20208;DHT22;10263;48.716;8.760;2023-04-24T05:26:45;7.80;99.90
20208;DHT22;10263;48.716;8.760;2023-04-24T05:31:42;8.00;99.90
20208;DHT22;10263;48.716;8.760;2023-04-24T05:34:10;7.80;99.90
20208;DHT22;10263;48.716;8.760;2023-04-24T05:36:41;7.60;99.90
20208;DHT22;10263;48.716;8.760;2023-04-24T05:39:08;8.00;99.90
20208;DHT22;10263;48.716;8.760;2023-04-24T05:41:35;7.80;99.90
20208;DHT22;10263;48.716;8.760;2023-04-24T05:46:29;8.10;99.90
20208;DHT22;10263;48.716;8.760;2023-04-24T05:48:56;7.90;99.90
20208;DHT22;10263;48.716;8.760;2023-04-24T05:51:24;7.80;99.90
20208;DHT22;10263;48.716;8.760;2023-04-24T05:53:51;8.30;99.90
20208;DHT22;10263;48.716;8.760;2023-04-24T05:56:18;8.30;99.90
20208;DHT22;10263;48.716;8.760;2023-04-24T05:58:46;8.80;99.90
20208;DHT22;10263;48.716;8.760;2023-04-24T06:03:43;9.60;99.90
20208;DHT22;10263;48.716;8.760;2023-04-24T06:06:10;9.60;99.90
20208;DHT22;10263;48.716;8.760;2023-04-24T06:08:38;10.00;99.90
20208;DHT22;10263;48.716;8.760;2023-04-24T06:11:05;10.90;99.90
20208;DHT22;10263;48.716;8.760;2023-04-24T06:16:19;10.80;99.90
20208;DHT22;10263;48.716;8.760;2023-04-24T06:18:53;11.50;99.90
20208;DHT22;10263;48.716;8.760;2023-04-24T06:21:20;12.30;99.90
20208;DHT22;10263;48.716;8.760;2023-04-24T06:23:49;12.80;99.90
20208;DHT22;10263;48.716;8.760;2023-04-24T06:26:15;13.00;99.90
20208;DHT22;10263;48.716;8.760;2023-04-24T06:28:42;12.50;99.90
20208;DHT22;10263;48.716;8.760;2023-04-24T06:31:09;12.40;99.90
20208;DHT22;10263;48.716;8.760;2023-04-24T06:33:36;11.60;99.90
20208;DHT22;10263;48.716;8.760;2023-04-24T06:36:03;11.90;99.90
20208;DHT22;10263;48.716;8.760;2023-04-24T06:38:30;11.80;99.90
20208;DHT22;10263;48.716;8.760;2023-04-24T06:40:58;11.70;99.90
20208;DHT22;10263;48.716;8.760;2023-04-24T06:43:25;12.10;99.90
20208;DHT22;10263;48.716;8.760;2023-04-24T06:45:52;12.20;99.90
20208;DHT22;10263;48.716;8.760;2023-04-24T06:48:19;11.90;99.90
20208;DHT22;10263;48.716;8.760;2023-04-24T06:53:13;12.00;99.90
20208;DHT22;10263;48.716;8.760;2023-04-24T06:55:40;12.00;99.90
20208;DHT22;10263;48.716;8.760;2023-04-24T06:58:08;11.70;99.90
20208;DHT22;10263;48.716;8.760;2023-04-24T07:03:02;10.70;99.90
20208;DHT22;10263;48.716;8.760;2023-04-24T07:05:30;11.20;99.90
20208;DHT22;10263;48.716;8.760;2023-04-24T07:10:27;11.20;99.90
20208;DHT22;10263;48.716;8.760;2023-04-24T07:12:54;11.30;99.90
20208;DHT22;10263;48.716;8.760;2023-04-24T07:15:22;11.10;99.90
20208;DHT22;10263;48.716;8.760;2023-04-24T07:17:49;11.60;99.90
20208;DHT22;10263;48.716;8.760;2023-04-24T07:20:16;11.70;99.90
20208;DHT22;10263;48.716;8.760;2023-04-24T07:22:43;11.90;99.90
20208;DHT22;10263;48.716;8.760;2023-04-24T07:25:10;11.50;99.90
20208;DHT22;10263;48.716;8.760;2023-04-24T07:27:37;11.90;99.90
20208;DHT22;10263;48.716;8.760;2023-04-24T07:30:04;11.90;99.90
20208;DHT22;10263;48.716;8.760;2023-04-24T07:32:33;11.50;99.90
20208;DHT22;10263;48.716;8.760;2023-04-24T07:37:28;11.30;99.90
20208;DHT22;10263;48.716;8.760;2023-04-24T07:39:55;11.40;99.90
20208;DHT22;10263;48.716;8.760;2023-04-24T07:42:22;11.60;99.90
20208;DHT22;10263;48.716;8.760;2023-04-24T07:44:48;11.80;99.90
20208;DHT22;10263;48.716;8.760;2023-04-24T07:47:16;12.50;99.90
20208;DHT22;10263;48.716;8.760;2023-04-24T07:49:44;12.50;99.90
20208;DHT22;10263;48.716;8.760;2023-04-24T07:52:11;12.80;99.90
20208;DHT22;10263;48.716;8.760;2023-04-24T07:54:38;13.00;99.90
20208;DHT22;10263;48.716;8.760;2023-04-24T07:57:05;13.10;99.90
20208;DHT22;10263;48.716;8.760;2023-04-24T08:02:00;12.60;99.90
20208;DHT22;10263;48.716;8.760;2023-04-24T08:04:27;13.60;99.90
20208;DHT22;10263;48.716;8.760;2023-04-24T08:06:55;13.80;99.90
20208;DHT22;10263;48.716;8.760;2023-04-24T08:09:22;13.60;99.90
20208;DHT22;10263;48.716;8.760;2023-04-24T08:11:49;13.20;99.90
20208;DHT22;10263;48.716;8.760;2023-04-24T08:14:16;12.60;99.90
20208;DHT22;10263;48.716;8.760;2023-04-24T08:21:37;12.30;99.90
20208;DHT22;10263;48.716;8.760;2023-04-24T08:24:06;12.40;99.90
20208;DHT22;10263;48.716;8.760;2023-04-24T08:26:33;12.80;99.90
20208;DHT22;10263;48.716;8.760;2023-04-24T08:31:27;11.90;99.90
20208;DHT22;10263;48.716;8.760;2023-04-24T08:36:21;11.10;99.90
20208;DHT22;10263;48.716;8.760;2023-04-24T08:38:48;11.00;99.90
20208;DHT22;10263;48.716;8.760;2023-04-24T08:41:18;11.10;99.90
20208;DHT22;10263;48.716;8.760;2023-04-24T08:43:46;10.80;99.90
20208;DHT22;10263;48.716;8.760;2023-04-24T08:46:13;11.10;99.90
20208;DHT22;10263;48.716;8.760;2023-04-24T08:48:42;11.50;99.90
20208;DHT22;10263;48.716;8.760;2023-04-24T08:51:09;12.00;99.90
20208;DHT22;10263;48.716;8.760;2023-04-24T08:53:36;13.10;99.90
20208;DHT22;10263;48.716;8.760;2023-04-24T08:56:03;13.20;99.90
20208;DHT22;10263;48.716;8.760;2023-04-24T08:58:31;13.20;99.90
20208;DHT22;10263;48.716;8.760;2023-04-24T09:01:00;13.20;99.90
20208;DHT22;10263;48.716;8.760;2023-04-24T09:03:27;13.60;99.90
20208;DHT22;10263;48.716;8.760;2023-04-24T09:05:55;14.00;99.90
20208;DHT22;10263;48.716;8.760;2023-04-24T09:08:25;14.70;99.90
20208;DHT22;10263;48.716;8.760;2023-04-24T09:10:52;15.60;99.90
20208;DHT22;10263;48.716;8.760;2023-04-24T09:13:19;15.40;99.90
20208;DHT22;10263;48.716;8.760;2023-04-24T09:15:48;15.00;99.90
20208;DHT22;10263;48.716;8.760;2023-04-24T09:18:14;14.60;99.90
20208;DHT22;10263;48.716;8.760;2023-04-24T09:20:57;14.10;99.90
20208;DHT22;10263;48.716;8.760;2023-04-24T09:23:26;14.00;99.90
20208;DHT22;10263;48.716;8.760;2023-04-24T09:25:55;14.00;99.90
20208;DHT22;10263;48.716;8.760;2023-04-24T09:28:25;13.80;99.90
20208;DHT22;10263;48.716;8.760;2023-04-24T09:31:04;14.60;99.90
20208;DHT22;10263;48.716;8.760;2023-04-24T09:33:30;14.10;99.90
20208;DHT22;10263;48.716;8.760;2023-04-24T09:35:57;14.20;99.80
20208;DHT22;10263;48.716;8.760;2023-04-24T09:38:31;14.00;99.90
20208;DHT22;10263;48.716;8.760;2023-04-24T09:41:00;14.70;99.90
20208;DHT22;10263;48.716;8.760;2023-04-24T09:43:27;15.00;99.90
20208;DHT22;10263;48.716;8.760;2023-04-24T09:45:56;16.10;99.10
20208;DHT22;10263;48.716;8.760;2023-04-24T09:48:31;16.30;95.60
20208;DHT22;10263;48.716;8.760;2023-04-24T09:50:58;16.60;94.60
20208;DHT22;10263;48.716;8.760;2023-04-24T09:55:53;16.40;94.70
20208;DHT22;10263;48.716;8.760;2023-04-24T09:58:24;16.70;94.70
20208;DHT22;10263;48.716;8.760;2023-04-24T10:00:54;17.20;94.10
20208;DHT22;10263;48.716;8.760;2023-04-24T10:03:24;17.10;92.70
20208;DHT22;10263;48.716;8.760;2023-04-24T10:05:53;17.90;92.90
20208;DHT22;10263;48.716;8.760;2023-04-24T10:08:20;17.90;92.70
20208;DHT22;10263;48.716;8.760;2023-04-24T10:13:15;16.90;91.30
20208;DHT22;10263;48.716;8.760;2023-04-24T10:15:42;16.90;93.50
20208;DHT22;10263;48.716;8.760;2023-04-24T10:18:10;17.40;93.80
20208;DHT22;10263;48.716;8.760;2023-04-24T10:20:38;17.00;91.10
20208;DHT22;10263;48.716;8.760;2023-04-24T10:23:07;16.90;91.00
20208;DHT22;10263;48.716;8.760;2023-04-24T10:25:35;16.30;93.10
20208;DHT22;10263;48.716;8.760;2023-04-24T10:28:03;16.10;92.90
20208;DHT22;10263;48.716;8.760;2023-04-24T10:30:31;15.60;93.60
20208;DHT22;10263;48.716;8.760;2023-04-24T10:35:30;15.00;93.50
20208;DHT22;10263;48.716;8.760;2023-04-24T10:37:59;14.90;92.90
20208;DHT22;10263;48.716;8.760;2023-04-24T10:40:31;14.40;95.60
20208;DHT22;10263;48.716;8.760;2023-04-24T10:43:01;14.30;95.50
20208;DHT22;10263;48.716;8.760;2023-04-24T10:45:28;13.80;94.40
20208;DHT22;10263;48.716;8.760;2023-04-24T10:47:59;13.40;96.30
20208;DHT22;10263;48.716;8.760;2023-04-24T10:50:28;13.50;96.60
20208;DHT22;10263;48.716;8.760;2023-04-24T10:53:06;13.20;94.70
20208;DHT22;10263;48.716;8.760;2023-04-24T10:55:45;13.30;97.70
20208;DHT22;10263;48.716;8.760;2023-04-24T10:58:12;13.00;98.10
20208;DHT22;10263;48.716;8.760;2023-04-24T11:00:41;13.30;97.10
20208;DHT22;10263;48.716;8.760;2023-04-24T11:03:23;13.40;96.30
20208;DHT22;10263;48.716;8.760;2023-04-24T11:05:53;13.20;98.60
20208;DHT22;10263;48.716;8.760;2023-04-24T11:08:32;12.70;98.10
20208;DHT22;10263;48.716;8.760;2023-04-24T11:11:09;12.40;98.70
20208;DHT22;10263;48.716;8.760;2023-04-24T11:14:02;12.40;99.60
20208;DHT22;10263;48.716;8.760;2023-04-24T11:16:30;12.10;98.60
20208;DHT22;10263;48.716;8.760;2023-04-24T11:19:05;9.90;99.00
20208;DHT22;10263;48.716;8.760;2023-04-24T11:21:32;12.00;99.90
20208;DHT22;10263;48.716;8.760;2023-04-24T11:24:23;11.80;99.90
20208;DHT22;10263;48.716;8.760;2023-04-24T11:26:53;12.90;99.90
20208;DHT22;10263;48.716;8.760;2023-04-24T11:29:21;12.60;99.90
20208;DHT22;10263;48.716;8.760;2023-04-24T11:34:17;13.40;98.70
20208;DHT22;10263;48.716;8.760;2023-04-24T11:36:45;13.50;99.20
20208;DHT22;10263;48.716;8.760;2023-04-24T11:39:12;13.30;99.40
20208;DHT22;10263;48.716;8.760;2023-04-24T11:41:38;12.30;98.80
20208;DHT22;10263;48.716;8.760;2023-04-24T11:44:08;12.10;99.80
20208;DHT22;10263;48.716;8.760;2023-04-24T11:46:35;11.70;99.90
20208;DHT22;10263;48.716;8.760;2023-04-24T11:49:03;11.40;98.70
20208;DHT22;10263;48.716;8.760;2023-04-24T11:53:58;11.40;98.30
20208;DHT22;10263;48.716;8.760;2023-04-24T11:56:25;11.50;99.90
20208;DHT22;10263;48.716;8.760;2023-04-24T11:58:52;11.50;99.90
20208;DHT22;10263;48.716;8.760;2023-04-24T12:01:21;11.60;98.70
20208;DHT22;10263;48.716;8.760;2023-04-24T12:03:49;11.90;99.90
20208;DHT22;10263;48.716;8.760;2023-04-24T12:06:17;11.80;99.90
20208;DHT22;10263;48.716;8.760;2023-04-24T12:08:46;12.00;98.60
20208;DHT22;10263;48.716;8.760;2023-04-24T12:11:15;12.30;99.90
20208;DHT22;10263;48.716;8.760;2023-04-24T12:16:09;12.30;99.90
20208;DHT22;10263;48.716;8.760;2023-04-24T12:18:42;12.10;99.90
20208;DHT22;10263;48.716;8.760;2023-04-24T12:21:18;12.50;99.90
20208;DHT22;10263;48.716;8.760;2023-04-24T12:23:45;12.10;99.90
20208;DHT22;10263;48.716;8.760;2023-04-24T12:26:14;12.50;99.90
20208;DHT22;10263;48.716;8.760;2023-04-24T12:28:42;12.50;99.90
20208;DHT22;10263;48.716;8.760;2023-04-24T12:33:36;12.00;99.90
20208;DHT22;10263;48.716;8.760;2023-04-24T12:36:05;11.80;99.90
20208;DHT22;10263;48.716;8.760;2023-04-24T12:38:32;11.70;99.90
20208;DHT22;10263;48.716;8.760;2023-04-24T12:41:06;11.70;99.90
20208;DHT22;10263;48.716;8.760;2023-04-24T12:43:33;11.90;99.90
20208;DHT22;10263;48.716;8.760;2023-04-24T12:46:01;11.30;99.90
20208;DHT22;10263;48.716;8.760;2023-04-24T12:48:29;11.50;99.90
20208;DHT22;10263;48.716;8.760;2023-04-24T12:50:57;11.80;99.90
20208;DHT22;10263;48.716;8.760;2023-04-24T12:53:28;12.00;99.90
20208;DHT22;10263;48.716;8.760;2023-04-24T12:58:23;12.20;99.90
20208;DHT22;10263;48.716;8.760;2023-04-24T13:00:50;12.00;99.90
20208;DHT22;10263;48.716;8.760;2023-04-24T13:03:18;11.30;99.90
20208;DHT22;10263;48.716;8.760;2023-04-24T13:05:44;11.20;99.90
20208;DHT22;10263;48.716;8.760;2023-04-24T13:08:11;11.30;99.90
20208;DHT22;10263;48.716;8.760;2023-04-24T13:10:40;11.00;99.90
20208;DHT22;10263;48.716;8.760;2023-04-24T13:13:07;10.70;99.90
20208;DHT22;10263;48.716;8.760;2023-04-24T13:18:02;10.60;99.90
20208;DHT22;10263;48.716;8.760;2023-04-24T13:20:28;10.90;99.90
20208;DHT22;10263;48.716;8.760;2023-04-24T13:22:55;10.50;99.90
20208;DHT22;10263;48.716;8.760;2023-04-24T13:25:22;10.70;99.90
20208;DHT22;10263;48.716;8.760;2023-04-24T13:27:51;10.70;99.90
20208;DHT22;10263;48.716;8.760;2023-04-24T13:30:18;10.80;99.90
20208;DHT22;10263;48.716;8.760;2023-04-24T13:32:45;10.90;99.90
20208;DHT22;10263;48.716;8.760;2023-04-24T13:35:12;11.00;99.90
20208;DHT22;10263;48.716;8.760;2023-04-24T13:40:06;10.60;99.90
20208;DHT22;10263;48.716;8.760;2023-04-24T13:42:33;10.30;99.90
20208;DHT22;10263;48.716;8.760;2023-04-24T13:45:02;10.30;99.90
20208;DHT22;10263;48.716;8.760;2023-04-24T13:47:29;10.20;99.90
20208;DHT22;10263;48.716;8.760;2023-04-24T13:49:56;10.00;99.90
20208;DHT22;10263;48.716;8.760;2023-04-24T13:54:50;10.60;99.90
20208;DHT22;10263;48.716;8.760;2023-04-24T13:57:17;10.80;99.90
20208;DHT22;10263;48.716;8.760;2023-04-24T14:02:12;11.40;99.90
20208;DHT22;10263;48.716;8.760;2023-04-24T14:04:39;11.70;99.90
20208;DHT22;10263;48.716;8.760;2023-04-24T14:07:06;12.20;99.90
20208;DHT22;10263;48.716;8.760;2023-04-24T14:12:00;12.10;99.90
20208;DHT22;10263;48.716;8.760;2023-04-24T14:14:28;12.00;99.90
20208;DHT22;10263;48.716;8.760;2023-04-24T14:16:55;12.20;99.90
20208;DHT22;10263;48.716;8.760;2023-04-24T14:19:23;12.80;99.90
20208;DHT22;10263;48.716;8.760;2023-04-24T14:21:50;13.00;99.90
20208;DHT22;10263;48.716;8.760;2023-04-24T14:26:44;12.80;99.90
20208;DHT22;10263;48.716;8.760;2023-04-24T14:29:11;13.00;99.90
20208;DHT22;10263;48.716;8.760;2023-04-24T14:34:05;12.80;99.90
20208;DHT22;10263;48.716;8.760;2023-04-24T14:36:33;12.80;99.90
20208;DHT22;10263;48.716;8.760;2023-04-24T14:41:31;12.70;99.90
20208;DHT22;10263;48.716;8.760;2023-04-24T14:43:59;12.50;99.90
20208;DHT22;10263;48.716;8.760;2023-04-24T14:46:25;12.10;99.90
20208;DHT22;10263;48.716;8.760;2023-04-24T14:51:19;11.50;99.90
20208;DHT22;10263;48.716;8.760;2023-04-24T14:53:48;11.50;99.90
20208;DHT22;10263;48.716;8.760;2023-04-24T14:56:15;11.50;99.90
20208;DHT22;10263;48.716;8.760;2023-04-24T15:01:10;11.50;99.90
20208;DHT22;10263;48.716;8.760;2023-04-24T15:03:37;11.10;99.90
20208;DHT22;10263;48.716;8.760;2023-04-24T15:06:04;11.60;99.90
20208;DHT22;10263;48.716;8.760;2023-04-24T15:08:31;11.40;99.90
20208;DHT22;10263;48.716;8.760;2023-04-24T15:10:59;11.90;99.90
20208;DHT22;10263;48.716;8.760;2023-04-24T15:15:53;11.90;99.90
20208;DHT22;10263;48.716;8.760;2023-04-24T15:18:20;11.50;99.90
20208;DHT22;10263;48.716;8.760;2023-04-24T15:20:47;12.00;99.90
20208;DHT22;10263;48.716;8.760;2023-04-24T15:23:13;11.80;99.90
20208;DHT22;10263;48.716;8.760;2023-04-24T15:25:40;11.60;99.90
20208;DHT22;10263;48.716;8.760;2023-04-24T15:28:09;11.50;99.90
20208;DHT22;10263;48.716;8.760;2023-04-24T15:30:36;11.90;99.90
20208;DHT22;10263;48.716;8.760;2023-04-24T15:37:57;12.30;99.90
20208;DHT22;10263;48.716;8.760;2023-04-24T15:40:24;12.30;99.90
20208;DHT22;10263;48.716;8.760;2023-04-24T15:42:51;12.10;99.90
20208;DHT22;10263;48.716;8.760;2023-04-24T15:45:19;12.40;99.90
20208;DHT22;10263;48.716;8.760;2023-04-24T15:47:45;12.30;99.90
20208;DHT22;10263;48.716;8.760;2023-04-24T15:50:12;12.90;99.90
20208;DHT22;10263;48.716;8.760;2023-04-24T15:52:41;13.00;99.90
20208;DHT22;10263;48.716;8.760;2023-04-24T15:55:08;12.50;99.90
20208;DHT22;10263;48.716;8.760;2023-04-24T15:57:35;12.70;99.90
20208;DHT22;10263;48.716;8.760;2023-04-24T16:00:03;12.40;99.90
20208;DHT22;10263;48.716;8.760;2023-04-24T16:02:38;12.20;99.90
20208;DHT22;10263;48.716;8.760;2023-04-24T16:05:06;12.30;99.90
20208;DHT22;10263;48.716;8.760;2023-04-24T16:07:33;11.90;99.90
20208;DHT22;10263;48.716;8.760;2023-04-24T16:10:00;11.70;99.90
20208;DHT22;10263;48.716;8.760;2023-04-24T16:17:22;11.60;99.90
20208;DHT22;10263;48.716;8.760;2023-04-24T16:19:50;11.30;99.90
20208;DHT22;10263;48.716;8.760;2023-04-24T16:22:17;11.60;99.90
20208;DHT22;10263;48.716;8.760;2023-04-24T16:27:13;12.10;99.90
20208;DHT22;10263;48.716;8.760;2023-04-24T16:29:40;11.90;99.90
20208;DHT22;10263;48.716;8.760;2023-04-24T16:32:07;11.90;99.90
20208;DHT22;10263;48.716;8.760;2023-04-24T16:37:02;12.10;99.90
20208;DHT22;10263;48.716;8.760;2023-04-24T16:39:29;11.90;99.90
20208;DHT22;10263;48.716;8.760;2023-04-24T16:49:18;11.60;99.90
20208;DHT22;10263;48.716;8.760;2023-04-24T16:51:44;11.50;99.90
20208;DHT22;10263;48.716;8.760;2023-04-24T16:54:13;11.20;99.90
20208;DHT22;10263;48.716;8.760;2023-04-24T17:01:34;11.20;99.90
20208;DHT22;10263;48.716;8.760;2023-04-24T17:06:28;11.20;99.90
20208;DHT22;10263;48.716;8.760;2023-04-24T17:11:26;11.50;99.90
20208;DHT22;10263;48.716;8.760;2023-04-24T17:13:52;11.60;99.90
20208;DHT22;10263;48.716;8.760;2023-04-24T17:16:19;11.40;99.90
20208;DHT22;10263;48.716;8.760;2023-04-24T17:18:46;11.10;99.90
20208;DHT22;10263;48.716;8.760;2023-04-24T17:21:13;11.70;99.90
20208;DHT22;10263;48.716;8.760;2023-04-24T17:23:41;11.00;99.90
20208;DHT22;10263;48.716;8.760;2023-04-24T17:26:08;10.50;99.90
20208;DHT22;10263;48.716;8.760;2023-04-24T17:28:36;10.90;99.90
20208;DHT22;10263;48.716;8.760;2023-04-24T17:31:03;11.00;99.90
20208;DHT22;10263;48.716;8.760;2023-04-24T17:33:30;11.00;99.90
20208;DHT22;10263;48.716;8.760;2023-04-24T17:35:57;10.50;99.90
20208;DHT22;10263;48.716;8.760;2023-04-24T17:38:24;10.40;99.90
20208;DHT22;10263;48.716;8.760;2023-04-24T17:40:51;10.30;99.90
20208;DHT22;10263;48.716;8.760;2023-04-24T17:43:18;10.20;99.90
20208;DHT22;10263;48.716;8.760;2023-04-24T17:45:47;10.30;99.90
20208;DHT22;10263;48.716;8.760;2023-04-24T17:48:15;10.40;99.90
20208;DHT22;10263;48.716;8.760;2023-04-24T17:50:42;10.40;99.90
20208;DHT22;10263;48.716;8.760;2023-04-24T17:53:09;10.50;99.90
20208;DHT22;10263;48.716;8.760;2023-04-24T17:55:36;9.90;99.90
20208;DHT22;10263;48.716;8.760;2023-04-24T17:58:03;10.10;99.90
20208;DHT22;10263;48.716;8.760;2023-04-24T18:02:59;10.20;99.90
20208;DHT22;10263;48.716;8.760;2023-04-24T18:05:26;9.90;99.90
20208;DHT22;10263;48.716;8.760;2023-04-24T18:07:54;9.80;99.90
20208;DHT22;10263;48.716;8.760;2023-04-24T18:10:21;10.00;99.90
20208;DHT22;10263;48.716;8.760;2023-04-24T18:12:48;10.00;99.90
20208;DHT22;10263;48.716;8.760;2023-04-24T18:15:15;9.90;99.90
20208;DHT22;10263;48.716;8.760;2023-04-24T18:17:42;9.30;99.90
20208;DHT22;10263;48.716;8.760;2023-04-24T18:20:11;9.50;99.90
20208;DHT22;10263;48.716;8.760;2023-04-24T18:22:38;9.30;99.90
20208;DHT22;10263;48.716;8.760;2023-04-24T18:25:06;10.80;99.90
20208;DHT22;10263;48.716;8.760;2023-04-24T18:30:00;9.50;99.90
20208;DHT22;10263;48.716;8.760;2023-04-24T18:34:55;9.50;99.90
20208;DHT22;10263;48.716;8.760;2023-04-24T18:37:23;9.30;99.90
20208;DHT22;10263;48.716;8.760;2023-04-24T18:39:50;9.10;99.90
20208;DHT22;10263;48.716;8.760;2023-04-24T18:42:17;8.80;99.90
20208;DHT22;10263;48.716;8.760;2023-04-24T18:44:43;8.90;99.90
20208;DHT22;10263;48.716;8.760;2023-04-24T18:49:37;9.00;99.90
20208;DHT22;10263;48.716;8.760;2023-04-24T18:54:33;9.00;99.90
20208;DHT22;10263;48.716;8.760;2023-04-24T18:57:00;8.80;99.90
20208;DHT22;10263;48.716;8.760;2023-04-24T18:59:27;9.00;99.90
20208;DHT22;10263;48.716;8.760;2023-04-24T19:01:53;8.40;99.90
20208;DHT22;10263;48.716;8.760;2023-04-24T19:06:47;8.80;99.90